Time;durP1;ratioP1;P1;durP2;ratioP2;P2;SDS_P1;SDS_P2;PMS_P1;PMS_P2;Temp;Humidity;BMP_temperature;BMP_pressure;BME280_temperature;BME280_humidity;BME280_pressure;Samples;Min_cycle;Max_cycle;Signal;HPM_P1;HPM_P2
2021/12/08 00:01:48;;;;;;;2.40;1.52;;;;;;;7.04;94.00;99396.94;5033296;28;20037;-78
2021/12/08 00:04:13;;;;;;;2.45;1.67;;;;;;;7.05;94.11;99394.16;5034362;28;20533;-78
2021/12/08 00:06:39;;;;;;;4.97;1.80;;;;;;;7.01;94.07;99391.84;5032184;28;20458;-78
2021/12/08 00:09:18;;;;;;;3.47;1.80;;;;;;;7.11;93.91;99398.09;5032460;28;20034;-78
2021/12/08 00:14:28;;;;;;;4.13;2.67;;;;;;;6.95;93.73;99384.38;5032314;28;20095;-78
2021/12/08 00:16:54;;;;;;;4.25;2.92;;;;;;;6.83;93.45;99382.75;5032506;28;20445;-78
2021/12/08 00:19:19;;;;;;;2.17;1.63;;;;;;;6.81;92.80;99374.88;5014754;28;20022;-78
2021/12/08 00:21:45;;;;;;;2.35;1.67;;;;;;;6.68;92.37;99384.91;5032577;28;20030;-78
2021/12/08 00:24:10;;;;;;;2.92;1.50;;;;;;;6.69;92.49;99393.78;5032587;28;20033;-78
2021/12/08 00:26:36;;;;;;;1.83;1.58;;;;;;;6.68;92.69;99378.72;5031891;28;20414;-78
2021/12/08 00:29:05;;;;;;;2.33;1.50;;;;;;;6.67;92.98;99377.88;5032472;28;20072;-79
2021/12/08 00:31:31;;;;;;;2.05;1.55;;;;;;;6.56;91.88;99376.13;5032390;28;20084;-79
2021/12/08 00:33:56;;;;;;;2.45;1.50;;;;;;;6.56;92.24;99370.78;5015146;28;20029;-79
2021/12/08 00:36:31;;;;;;;1.50;1.17;;;;;;;6.50;91.61;99368.63;5032520;28;20098;-79
2021/12/08 00:38:56;;;;;;;7.40;1.58;;;;;;;6.45;91.84;99362.81;5044739;28;20028;-79
2021/12/08 00:41:22;;;;;;;1.30;1.20;;;;;;;6.42;92.02;99355.06;5043444;28;20033;-79
2021/12/08 00:43:47;;;;;;;1.35;1.25;;;;;;;6.48;92.21;99367.88;5036917;28;20471;-79
2021/12/08 00:46:13;;;;;;;2.45;1.73;;;;;;;6.52;91.87;99369.34;5055613;28;20028;-77
2021/12/08 00:48:40;;;;;;;2.00;1.58;;;;;;;6.46;91.70;99369.00;5037345;28;20492;-77
2021/12/08 00:51:06;;;;;;;2.97;1.63;;;;;;;6.50;90.43;99397.16;5056201;28;20021;-79
2021/12/08 00:53:32;;;;;;;2.22;1.70;;;;;;;6.47;90.26;99397.41;5056092;28;20050;-79
2021/12/08 00:55:57;;;;;;;4.03;1.42;;;;;;;6.52;90.16;99398.72;5055507;28;20060;-79
2021/12/08 00:58:24;;;;;;;2.05;1.65;;;;;;;6.66;90.28;99407.41;5055570;28;20455;-81
2021/12/08 01:00:52;;;;;;;2.28;1.63;;;;;;;6.74;90.48;99403.09;5056362;28;20505;-79
2021/12/08 01:03:18;;;;;;;4.43;1.27;;;;;;;6.75;89.19;99404.78;5055427;28;20094;-79
2021/12/08 01:05:49;;;;;;;1.25;1.00;;;;;;;6.75;88.87;99395.94;5055422;28;20036;-79
2021/12/08 01:08:15;;;;;;;2.00;1.80;;;;;;;6.84;89.07;99405.84;5054901;28;20020;-79
2021/12/08 01:10:44;;;;;;;3.92;1.15;;;;;;;6.87;89.39;99400.22;5055061;28;20056;-79
2021/12/08 01:13:11;;;;;;;1.67;1.30;;;;;;;7.02;89.51;99414.94;5055076;28;20112;-78
2021/12/08 01:15:40;;;;;;;3.15;1.27;;;;;;;7.02;89.33;99420.28;5055156;28;20066;-77
2021/12/08 01:18:05;;;;;;;2.15;1.17;;;;;;;6.90;88.33;99421.34;5055422;28;20028;-80
2021/12/08 01:20:31;;;;;;;1.60;1.40;;;;;;;6.91;87.16;99412.34;5054887;28;20078;-78
2021/12/08 01:22:56;;;;;;;1.83;1.17;;;;;;;6.91;86.51;99404.34;5036624;28;20032;-80
2021/12/08 01:25:22;;;;;;;2.13;1.33;;;;;;;6.90;86.24;99418.66;5055219;28;20043;-78
2021/12/08 01:27:47;;;;;;;1.10;1.00;;;;;;;6.93;85.97;99437.97;5037178;28;20029;-78
2021/12/08 01:30:13;;;;;;;3.08;1.98;;;;;;;6.91;86.47;99429.22;5036511;28;20021;-79
2021/12/08 01:32:39;;;;;;;2.40;1.35;;;;;;;6.80;85.01;99442.66;5054843;28;20060;-79
2021/12/08 01:35:08;;;;;;;1.63;1.33;;;;;;;6.89;85.63;99441.00;5054859;28;20027;-78
2021/12/08 01:37:34;;;;;;;0.90;0.90;;;;;;;6.88;85.74;99434.81;5054237;28;20432;-78
2021/12/08 01:40:00;;;;;;;1.63;1.38;;;;;;;6.89;86.47;99441.00;5054635;28;20025;-77
2021/12/08 01:42:32;;;;;;;1.60;1.40;;;;;;;6.88;86.67;99442.00;5055809;28;20109;-77
2021/12/08 01:47:41;;;;;;;3.10;1.77;;;;;;;6.67;86.76;99419.75;5034805;28;19919;-80
2021/12/08 01:50:09;;;;;;;1.40;1.30;;;;;;;6.57;86.30;99430.41;5034371;28;20026;-79
2021/12/08 01:52:34;;;;;;;1.92;1.30;;;;;;;6.46;86.34;99433.94;5034029;28;20451;-80
2021/12/08 01:55:00;;;;;;;3.13;1.65;;;;;;;6.39;86.50;99427.41;5034275;28;20025;-78
2021/12/08 01:57:26;;;;;;;2.20;1.58;;;;;;;6.33;86.89;99432.44;5034498;28;20029;-78
2021/12/08 01:59:51;;;;;;;1.40;1.25;;;;;;;6.31;87.34;99435.22;5016431;28;20179;-78
2021/12/08 02:02:17;;;;;;;3.40;1.48;;;;;;;6.25;87.02;99449.09;5034179;28;20092;-78
2021/12/08 02:04:43;;;;;;;2.60;1.80;;;;;;;6.26;86.79;99448.13;5034282;28;20489;-78
2021/12/08 02:07:08;;;;;;;2.55;1.92;;;;;;;6.33;87.21;99448.47;5034381;28;20026;-77
2021/12/08 02:09:34;;;;;;;2.35;1.98;;;;;;;6.25;85.75;99443.75;5034273;28;20037;-78
2021/12/08 02:12:00;;;;;;;1.65;1.40;;;;;;;6.23;86.11;99443.03;5034310;28;20024;-78
2021/12/08 02:14:25;;;;;;;2.47;1.85;;;;;;;6.27;86.49;99460.47;5034247;28;20029;-78
2021/12/08 02:16:54;;;;;;;1.85;1.60;;;;;;;6.29;86.76;99469.22;5034195;28;20155;-79
2021/12/08 02:19:20;;;;;;;3.30;1.77;;;;;;;6.28;86.89;99461.31;5051222;28;20037;-79
2021/12/08 02:21:51;;;;;;;4.07;1.65;;;;;;;6.16;86.77;99465.84;5040560;28;20021;-78
2021/12/08 02:24:18;;;;;;;1.58;1.27;;;;;;;6.20;86.14;99478.00;5016151;28;20108;-78
2021/12/08 02:26:47;;;;;;;1.85;1.38;;;;;;;6.19;84.87;99473.63;5016139;28;20031;-78
2021/12/08 02:29:24;;;;;;;1.35;1.25;;;;;;;6.15;84.75;99480.16;5033863;28;20041;-78
2021/12/08 02:32:00;;;;;;;1.15;1.00;;;;;;;6.12;83.71;99488.41;5033549;28;20025;-78
2021/12/08 02:48:06;;;;;;;2.78;1.65;;;;;;;6.06;84.66;99485.41;5033377;28;20115;-78
2021/12/08 02:50:37;;;;;;;4.55;2.03;;;;;;;6.01;84.19;99496.47;5033509;28;20041;-78
2021/12/08 02:53:05;;;;;;;2.53;1.70;;;;;;;6.04;83.64;99485.53;5034195;28;20029;-81
2021/12/08 02:55:31;;;;;;;1.48;1.33;;;;;;;6.15;83.94;99498.00;5037975;28;20017;-78
2021/12/08 02:58:00;;;;;;;2.50;1.73;;;;;;;6.25;84.43;99488.28;5015794;28;20376;-78
2021/12/08 03:00:29;;;;;;;3.88;1.15;;;;;;;6.25;84.67;99494.47;5033877;28;20100;-78
2021/12/08 03:02:57;;;;;;;2.50;1.60;;;;;;;6.30;84.51;99484.25;5032265;28;20084;-78
2021/12/08 03:05:24;;;;;;;1.30;1.20;;;;;;;6.37;83.93;99492.59;5032886;28;20033;-79
2021/12/08 03:07:50;;;;;;;1.75;1.25;;;;;;;6.35;84.12;99492.75;5032850;28;20045;-79
2021/12/08 03:10:20;;;;;;;1.02;0.93;;;;;;;6.32;83.79;99490.34;5034075;28;20068;-80
2021/12/08 03:12:46;;;;;;;1.20;1.10;;;;;;;6.43;83.75;99506.31;5035174;28;20083;-79
2021/12/08 03:15:13;;;;;;;1.67;1.52;;;;;;;6.44;83.36;99516.03;5036793;28;20442;-77
2021/12/08 03:17:40;;;;;;;2.03;1.42;;;;;;;6.44;82.64;99493.81;5024081;28;20059;-80
2021/12/08 03:20:09;;;;;;;6.38;1.20;;;;;;;6.39;81.71;99499.50;5032925;28;20025;-79
2021/12/08 03:22:39;;;;;;;1.58;1.48;;;;;;;6.36;81.37;99502.44;5032735;28;20018;-79
2021/12/08 03:25:07;;;;;;;1.85;1.27;;;;;;;6.26;81.67;99512.19;5032879;28;20100;-79
2021/12/08 03:27:38;;;;;;;1.73;1.40;;;;;;;6.16;81.49;99521.91;5033175;28;20147;-79
2021/12/08 03:30:19;;;;;;;1.10;1.00;;;;;;;6.09;81.25;99510.03;5032592;28;20024;-79
2021/12/08 03:32:45;;;;;;;1.42;1.10;;;;;;;6.05;81.28;99510.41;5014748;28;20116;-79
2021/12/08 03:35:14;;;;;;;2.95;1.67;;;;;;;6.08;81.64;99523.50;5032684;28;20380;-80
2021/12/08 03:37:45;;;;;;;1.20;1.10;;;;;;;6.05;82.04;99513.94;5033292;28;20108;-79
2021/12/08 03:40:14;;;;;;;2.13;1.60;;;;;;;5.94;82.53;99516.59;5017102;28;20398;-79
2021/12/08 03:42:41;;;;;;;1.15;0.93;;;;;;;5.92;83.21;99510.53;5035673;28;20437;-79
2021/12/08 03:45:20;;;;;;;1.58;1.17;;;;;;;5.83;82.79;99519.25;5051314;28;20073;-80
2021/12/08 03:47:49;;;;;;;2.05;1.20;;;;;;;5.88;82.66;99514.41;5059724;28;20100;-80
2021/12/08 03:50:17;;;;;;;1.88;1.30;;;;;;;5.87;82.04;99520.75;5054596;28;20078;-79
2021/12/08 03:52:44;;;;;;;1.50;1.40;;;;;;;5.83;81.87;99529.91;5053924;28;20083;-79
2021/12/08 03:55:14;;;;;;;1.00;1.00;;;;;;;5.80;81.73;99523.00;5054166;28;20375;-79
2021/12/08 03:57:39;;;;;;;2.40;1.60;;;;;;;5.85;81.53;99536.84;5054484;28;20027;-79
2021/12/08 04:00:21;;;;;;;1.48;1.38;;;;;;;5.94;81.67;99545.94;5072839;28;20013;-78
2021/12/08 04:02:47;;;;;;;1.90;1.40;;;;;;;5.85;80.49;99542.19;5052361;28;20044;-78
2021/12/08 04:05:19;;;;;;;1.38;1.27;;;;;;;5.88;80.76;99552.63;5052590;28;20035;-78
2021/12/08 04:07:46;;;;;;;1.20;1.10;;;;;;;5.94;81.75;99557.47;5051951;28;20029;-78
2021/12/08 04:10:18;;;;;;;4.35;1.48;;;;;;;6.05;82.68;99569.13;5052078;28;20044;-78
2021/12/08 04:12:50;;;;;;;5.57;1.35;;;;;;;5.93;81.41;99569.09;5052335;28;20025;-78
2021/12/08 04:15:18;;;;;;;2.45;1.30;;;;;;;5.87;81.01;99568.78;5055419;28;20078;-79
2021/12/08 04:17:46;;;;;;;2.53;1.90;;;;;;;5.93;81.31;99573.63;5057093;28;20612;-77
2021/12/08 04:20:18;;;;;;;2.35;1.83;;;;;;;5.89;81.82;99566.81;5055890;28;20025;-78
2021/12/08 04:22:47;;;;;;;3.22;1.92;;;;;;;5.87;82.68;99571.44;5055746;28;20029;-77
2021/12/08 04:25:20;;;;;;;2.70;2.05;;;;;;;5.85;82.43;99568.00;5055933;28;20029;-78
2021/12/08 04:27:50;;;;;;;11.00;5.05;;;;;;;5.82;82.53;99576.22;5056291;28;20024;-77
2021/12/08 04:30:23;;;;;;;4.72;2.05;;;;;;;5.83;82.46;99577.94;5055612;28;20036;-77
2021/12/08 04:32:49;;;;;;;16.27;9.13;;;;;;;5.77;81.09;99597.09;5036464;28;20048;-80
2021/12/08 04:35:18;;;;;;;3.45;2.50;;;;;;;5.75;81.11;99599.03;5035991;28;20049;-77
2021/12/08 04:37:49;;;;;;;2.78;2.50;;;;;;;5.79;81.47;99609.34;5035931;28;20483;-77
2021/12/08 04:45:37;;;;;;;3.55;2.50;;;;;;;5.78;80.66;99622.81;5050550;28;20029;-77
2021/12/08 05:01:17;;;;;;;5.57;3.22;;;;;;;5.58;81.07;99644.81;5055988;28;20070;-80
2021/12/08 05:06:51;;;;;;;3.80;2.60;;;;;;;5.57;80.48;99653.78;5055769;28;20048;-79
2021/12/08 05:09:23;;;;;;;3.33;2.25;;;;;;;5.47;80.02;99640.31;5055251;28;20040;-82
2021/12/08 05:11:56;;;;;;;6.90;3.30;;;;;;;5.47;80.88;99635.81;5057389;28;20108;-81
2021/12/08 05:14:28;;;;;;;5.55;3.70;;;;;;;5.55;81.12;99631.72;5056130;28;20071;-81
2021/12/08 05:17:00;;;;;;;3.53;3.05;;;;;;;5.66;81.82;99645.06;5055819;28;20036;-83
2021/12/08 05:19:30;;;;;;;4.40;3.22;;;;;;;5.69;82.56;99636.88;5037795;28;20474;-80
2021/12/08 05:22:01;;;;;;;6.85;3.65;;;;;;;5.54;82.08;99620.19;5038764;28;20025;-80
2021/12/08 05:24:38;;;;;;;3.05;2.58;;;;;;;5.53;81.27;99617.66;5055200;28;20103;-82
2021/12/08 05:27:17;;;;;;;6.68;3.60;;;;;;;5.49;80.79;99607.25;5056040;28;20028;-82
2021/12/08 05:29:48;;;;;;;4.13;3.10;;;;;;;5.37;80.23;99608.19;5056869;28;20108;-81
2021/12/08 05:32:14;;;;;;;5.35;3.35;;;;;;;5.46;80.30;99607.47;5055897;28;20108;-82
2021/12/08 05:34:40;;;;;;;6.93;3.65;;;;;;;5.47;80.65;99592.34;5055760;28;20025;-82
2021/12/08 05:37:08;;;;;;;4.13;3.03;;;;;;;5.41;79.49;99582.97;5057259;28;20078;-82
2021/12/08 05:39:35;;;;;;;5.07;2.97;;;;;;;5.22;78.98;99598.69;5074472;28;20025;-80
2021/12/08 05:42:06;;;;;;;14.90;6.38;;;;;;;5.14;79.57;99625.03;5058698;28;20151;-81
2021/12/08 05:44:33;;;;;;;8.38;3.80;;;;;;;5.13;79.67;99623.38;5055584;28;20021;-81
2021/12/08 05:47:03;;;;;;;6.18;3.05;;;;;;;5.16;79.65;99632.94;5054894;28;20020;-81
2021/12/08 05:49:29;;;;;;;4.80;3.33;;;;;;;5.17;79.63;99654.13;5054989;28;20028;-80
2021/12/08 05:51:55;;;;;;;6.90;4.18;;;;;;;5.23;80.08;99636.84;5054445;28;20021;-80
2021/12/08 05:54:31;;;;;;;4.10;2.95;;;;;;;5.23;79.57;99653.66;5055311;28;20056;-81
2021/12/08 05:57:01;;;;;;;3.97;2.92;;;;;;;5.19;80.09;99649.56;5055968;28;20033;-79
2021/12/08 05:59:27;;;;;;;4.57;3.25;;;;;;;5.23;79.86;99676.84;5038752;28;20033;-79
2021/12/08 06:01:58;;;;;;;5.82;3.50;;;;;;;5.22;80.34;99677.78;5056466;28;20128;-85
2021/12/08 06:04:26;;;;;;;7.97;5.80;;;;;;;5.23;79.61;99696.31;5055040;28;20048;-81
2021/12/08 06:06:53;;;;;;;9.57;4.00;;;;;;;5.23;80.07;99720.31;5055527;28;20032;-83
2021/12/08 06:09:20;;;;;;;6.05;4.45;;;;;;;5.20;80.75;99715.19;5031267;28;20025;-80
2021/12/08 06:11:47;;;;;;;8.77;4.85;;;;;;;5.33;80.88;99710.66;5052124;28;20017;-79
2021/12/08 06:14:14;;;;;;;6.15;4.38;;;;;;;5.34;81.07;99755.03;5052881;28;20414;-79
2021/12/08 06:16:42;;;;;;;5.05;3.90;;;;;;;5.45;82.28;99765.75;5036482;28;20107;-78
2021/12/08 06:19:10;;;;;;;4.95;3.42;;;;;;;5.44;82.30;99774.69;5041716;28;20021;-78
2021/12/08 06:21:36;;;;;;;9.75;4.57;;;;;;;5.44;82.12;99784.53;5034245;28;20036;-78
2021/12/08 06:24:07;;;;;;;16.92;5.20;;;;;;;5.57;82.54;99789.78;5039501;28;20021;-80
2021/12/08 06:26:33;;;;;;;7.20;5.10;;;;;;;5.61;83.01;99796.59;5014695;28;20101;-77
2021/12/08 06:28:59;;;;;;;14.75;6.35;;;;;;;5.72;82.87;99804.69;5034037;28;20044;-78
2021/12/08 06:31:27;;;;;;;9.07;5.47;;;;;;;5.70;81.96;99801.25;5033919;28;20029;-78
2021/12/08 06:33:54;;;;;;;17.60;4.93;;;;;;;5.74;81.68;99813.41;5050080;28;20029;-77
2021/12/08 06:36:27;;;;;;;6.10;4.63;;;;;;;5.76;80.98;99812.31;5037243;28;20029;-78
2021/12/08 06:38:53;;;;;;;7.82;4.88;;;;;;;5.79;80.14;99822.78;5053196;28;20059;-79
2021/12/08 06:41:34;;;;;;;13.05;6.60;;;;;;;5.80;79.92;99829.81;5036578;28;20464;-77
2021/12/08 06:44:06;;;;;;;13.13;8.05;;;;;;;5.84;80.30;99830.44;5054562;28;20020;-79
2021/12/08 06:46:32;;;;;;;8.18;6.15;;;;;;;5.88;80.59;99826.59;5040011;28;20056;-84
2021/12/08 06:49:00;;;;;;;10.43;5.47;;;;;;;5.98;80.65;99831.16;5016595;28;20033;-83
2021/12/08 06:51:37;;;;;;;25.83;8.98;;;;;;;5.81;79.47;99839.50;5033641;28;20449;-83
2021/12/08 06:54:13;;;;;;;29.65;5.70;;;;;;;5.81;79.99;99833.34;5016858;28;20099;-82
2021/12/08 06:56:45;;;;;;;18.98;4.70;;;;;;;5.98;80.39;99843.63;5034487;28;20025;-80
2021/12/08 06:59:16;;;;;;;11.27;5.70;;;;;;;6.09;79.24;99862.34;5034586;28;20360;-78
2021/12/08 07:02:07;;;;;;;27.17;7.40;;;;;;;6.01;79.31;99862.09;5033209;28;20057;-77
2021/12/08 07:04:56;;;;;;;13.35;6.43;;;;;;;6.05;79.36;99866.25;5033909;28;20099;-76
2021/12/08 07:07:28;;;;;;;7.22;4.05;;;;;;;5.98;78.25;99856.97;5034041;28;20026;-79
2021/12/08 07:10:03;;;;;;;13.98;4.78;;;;;;;6.14;79.38;99867.34;5033466;28;20443;-78
2021/12/08 07:12:41;;;;;;;5.20;3.45;;;;;;;6.10;78.33;99865.88;5033841;28;20052;-78
2021/12/08 07:15:18;;;;;;;6.97;3.40;;;;;;;6.11;79.10;99868.44;5033679;28;20104;-79
2021/12/08 07:17:49;;;;;;;19.67;4.53;;;;;;;6.21;78.73;99866.75;5034356;28;20411;-80
2021/12/08 07:23:04;;;;;;;9.07;4.10;;;;;;;6.34;77.82;99874.69;5039089;28;20040;-79
2021/12/08 07:25:33;;;;;;;18.02;4.25;;;;;;;6.45;77.48;99872.09;5033071;28;20096;-78
2021/12/08 07:27:59;;;;;;;3.88;2.90;;;;;;;6.52;77.95;99870.63;5032869;28;20176;-78
2021/12/08 07:30:45;;;;;;;8.27;3.47;;;;;;;6.68;78.19;99881.84;5032557;28;20051;-78
2021/12/08 07:33:11;;;;;;;17.90;3.70;;;;;;;6.58;76.45;99887.03;5033257;28;20033;-76
2021/12/08 07:35:50;;;;;;;10.88;3.55;;;;;;;6.60;75.47;99878.91;5033664;28;20057;-79
2021/12/08 07:38:18;;;;;;;21.13;3.85;;;;;;;6.74;76.21;99876.03;5034141;28;20025;-80
2021/12/08 07:40:53;;;;;;;4.85;2.97;;;;;;;6.83;75.20;99877.13;5016195;28;20021;-78
2021/12/08 07:43:23;;;;;;;4.18;2.67;;;;;;;6.81;75.63;99881.75;5033266;28;20453;-78
2021/12/08 07:46:02;;;;;;;6.88;2.35;;;;;;;6.86;76.22;99883.09;5036085;28;20037;-80
2021/12/08 07:48:34;;;;;;;9.68;2.85;;;;;;;6.67;76.82;99865.91;5033637;28;20200;-78
2021/12/08 07:51:15;;;;;;;10.02;4.68;;;;;;;6.77;77.45;99870.44;5033832;28;20033;-79
2021/12/08 07:53:42;;;;;;;12.13;3.00;;;;;;;6.68;76.25;99886.31;5034365;28;20037;-78
2021/12/08 07:56:11;;;;;;;33.35;3.22;;;;;;;6.71;76.69;99876.25;5033877;28;20037;-79
2021/12/08 07:58:40;;;;;;;8.68;2.25;;;;;;;6.84;77.00;99878.84;5033633;28;20025;-80
2021/12/08 08:01:11;;;;;;;11.07;3.20;;;;;;;6.84;76.76;99877.03;5044002;28;20517;-79
2021/12/08 08:03:38;;;;;;;5.15;3.10;;;;;;;6.96;77.78;99889.41;5010182;28;20056;-79
2021/12/08 08:06:09;;;;;;;4.63;2.40;;;;;;;6.95;76.68;99894.88;5011910;28;20021;-78
2021/12/08 08:08:35;;;;;;;6.95;3.17;;;;;;;7.04;77.08;99883.47;5011793;28;20040;-78
2021/12/08 08:11:31;;;;;;;7.43;3.22;;;;;;;7.13;77.76;99898.78;5012235;28;20038;-78
2021/12/08 08:13:58;;;;;;;7.55;3.13;;;;;;;7.10;76.71;99899.03;5000997;28;20071;-78
2021/12/08 08:16:31;;;;;;;9.23;2.67;;;;;;;6.92;75.82;99873.72;5013315;28;20501;-80
2021/12/08 08:19:05;;;;;;;9.30;3.25;;;;;;;7.08;76.20;99895.63;5013107;28;20034;-78
2021/12/08 08:21:34;;;;;;;16.27;2.78;;;;;;;7.10;76.19;99899.03;5014232;28;20049;-78
2021/12/08 08:24:00;;;;;;;3.33;2.33;;;;;;;6.99;76.10;99882.97;5013514;28;20109;-78
2021/12/08 08:26:27;;;;;;;5.68;2.92;;;;;;;7.11;75.98;99900.72;5013809;28;20037;-79
2021/12/08 08:28:53;;;;;;;11.68;3.28;;;;;;;7.26;76.49;99898.66;5013700;28;20061;-78
2021/12/08 08:31:27;;;;;;;5.45;3.38;;;;;;;7.36;77.24;99888.94;5013211;28;20527;-79
2021/12/08 08:33:53;;;;;;;15.77;3.47;;;;;;;7.52;76.99;99892.09;5013373;28;20034;-80
2021/12/08 08:36:23;;;;;;;13.93;3.35;;;;;;;7.60;76.81;99882.47;5013932;28;20487;-80
2021/12/08 08:39:00;;;;;;;8.07;3.80;;;;;;;7.70;77.06;99890.59;5013267;28;20025;-80
2021/12/08 08:41:48;;;;;;;16.08;3.78;;;;;;;7.65;75.96;99884.75;5013384;28;20108;-79
2021/12/08 08:44:38;;;;;;;26.25;5.45;;;;;;;7.75;75.54;99888.41;5012790;28;20030;-80
2021/12/08 08:47:09;;;;;;;5.47;3.58;;;;;;;7.77;74.84;99885.63;5013375;28;20044;-79
2021/12/08 08:49:38;;;;;;;27.63;7.88;;;;;;;7.90;76.63;99880.94;5013963;28;20105;-79
2021/12/08 08:52:09;;;;;;;6.88;4.45;;;;;;;7.86;75.68;99876.81;5013608;28;20057;-80
2021/12/08 08:54:39;;;;;;;13.65;3.80;;;;;;;7.67;75.95;99864.91;5014458;28;20101;-81
2021/12/08 08:57:04;;;;;;;11.88;2.20;;;;;;;7.71;75.49;99880.72;5013498;28;20022;-82
2021/12/08 08:59:34;;;;;;;10.15;2.30;;;;;;;7.62;74.67;99883.19;5011607;28;20094;-83
2021/12/08 09:02:08;;;;;;;8.95;2.55;;;;;;;7.62;75.21;99874.31;5023156;28;20034;-80
2021/12/08 09:04:38;;;;;;;21.23;3.47;;;;;;;7.80;76.38;99882.69;5008131;28;20057;-81
2021/12/08 09:07:11;;;;;;;11.35;4.03;;;;;;;7.84;76.21;99881.44;5017343;28;20033;-83
2021/12/08 09:09:42;;;;;;;10.35;4.95;;;;;;;7.84;76.40;99886.78;5018902;28;20029;-84
2021/12/08 09:12:25;;;;;;;5.45;3.10;;;;;;;7.88;76.25;99889.09;5017266;28;20026;-79
2021/12/08 09:14:56;;;;;;;7.82;2.60;;;;;;;7.84;76.17;99895.69;5017280;28;20087;-80
2021/12/08 09:17:28;;;;;;;6.82;4.30;;;;;;;7.72;75.49;99891.31;5016957;28;20171;-81
2021/12/08 09:20:07;;;;;;;8.93;2.95;;;;;;;7.53;76.07;99869.69;5016562;28;20033;-87
2021/12/08 09:22:54;;;;;;;15.68;3.72;;;;;;;7.69;76.66;99891.56;5016327;28;20100;-83
2021/12/08 09:25:36;;;;;;;10.20;2.55;;;;;;;7.74;76.81;99899.22;5000754;28;20046;-78
2021/12/08 09:28:15;;;;;;;28.60;5.22;;;;;;;7.72;75.10;99898.50;5019488;28;20053;-81
2021/12/08 09:31:19;;;;;;;7.32;2.40;;;;;;;7.63;75.02;99895.59;5016431;28;20034;-78
2021/12/08 09:33:57;;;;;;;5.57;3.70;;;;;;;7.60;74.93;99903.88;5019525;28;20061;-81
2021/12/08 09:36:34;;;;;;;13.95;3.05;;;;;;;7.71;76.05;99880.72;5022990;28;20411;-82
2021/12/08 09:39:12;;;;;;;14.40;6.88;;;;;;;7.80;75.02;99904.09;5033920;28;20025;-84
2021/12/08 09:41:44;;;;;;;37.50;5.55;;;;;;;7.83;74.26;99903.84;5032453;28;20034;-81
2021/12/08 09:44:12;;;;;;;;;;;;;;;7.97;74.77;99887.50;5026724;28;20041;-80
2021/12/08 09:46:45;;;;;;;6.18;2.90;;;;;;;8.02;74.85;99887.94;5019299;28;19921;-80
2021/12/08 09:49:13;;;;;;;6.75;3.22;;;;;;;7.95;73.04;99884.09;5017370;28;20026;-79
2021/12/08 09:51:39;;;;;;;12.73;3.55;;;;;;;7.95;73.51;99887.59;5017930;28;20066;-80
2021/12/08 09:54:06;;;;;;;9.63;3.83;;;;;;;8.03;73.82;99890.53;5016875;28;20053;-80
2021/12/08 09:56:33;;;;;;;8.27;3.42;;;;;;;8.07;73.71;99889.25;5017745;28;20038;-84
2021/12/08 09:59:05;;;;;;;6.13;3.10;;;;;;;8.20;74.08;99891.78;5017195;28;20029;-80
2021/12/08 10:01:32;;;;;;;4.93;2.85;;;;;;;8.20;73.30;99884.59;5034553;28;20040;-85
2021/12/08 10:03:59;;;;;;;8.43;2.97;;;;;;;8.27;74.84;99897.47;5046161;28;20121;-78
2021/12/08 10:06:25;;;;;;;10.80;2.85;;;;;;;8.13;73.79;99890.63;5056864;28;20064;-78
2021/12/08 10:08:57;;;;;;;7.30;2.55;;;;;;;8.27;74.77;99892.13;5056566;28;20028;-78
2021/12/08 10:11:24;;;;;;;3.40;2.17;;;;;;;8.23;74.14;99888.84;5055335;28;20067;-77
2021/12/08 10:13:49;;;;;;;19.23;2.60;;;;;;;7.98;72.51;99894.56;5056486;28;20036;-78
2021/12/08 10:16:15;;;;;;;4.80;2.67;;;;;;;8.17;74.23;99905.44;5057309;28;20036;-77
2021/12/08 10:18:42;;;;;;;4.57;2.55;;;;;;;8.18;74.69;99912.50;5044526;28;20025;-79
2021/12/08 10:21:07;;;;;;;10.48;2.55;;;;;;;8.09;74.71;99891.84;5054991;28;20067;-79
2021/12/08 10:23:40;;;;;;;9.20;2.50;;;;;;;8.01;73.37;99913.06;5060616;28;20024;-79
2021/12/08 10:26:15;;;;;;;7.78;3.30;;;;;;;8.09;74.80;99910.56;5055518;28;20146;-79
2021/12/08 10:28:49;;;;;;;4.38;2.40;;;;;;;8.13;75.01;99910.19;5060038;28;20486;-77
2021/12/08 10:31:19;;;;;;;7.43;2.30;;;;;;;8.19;74.69;99916.88;5054203;28;20040;-78
2021/12/08 10:39:09;;;;;;;8.65;4.55;;;;;;;8.39;73.33;99917.91;5054775;28;20102;-77
2021/12/08 10:41:49;;;;;;;8.27;4.68;;;;;;;8.47;73.50;99920.81;5056159;28;20021;-77
2021/12/08 10:44:21;;;;;;;39.13;12.07;;;;;;;8.56;72.87;99917.38;5060846;28;20049;-78
2021/12/08 10:46:51;;;;;;;12.88;5.55;;;;;;;8.65;73.62;99912.06;5059323;28;20059;-78
2021/12/08 10:49:24;;;;;;;10.63;4.60;;;;;;;8.68;73.45;99927.88;5055788;28;20035;-77
2021/12/08 10:54:36;;;;;;;10.77;4.57;;;;;;;8.61;72.38;99929.41;5054820;28;20489;-77
2021/12/08 10:57:19;;;;;;;8.25;3.22;;;;;;;8.46;71.95;99933.38;5051741;28;20104;-80
2021/12/08 11:00:25;;;;;;;9.13;4.25;;;;;;;8.38;72.34;99925.09;5033937;28;20131;-78
2021/12/08 11:02:56;;;;;;;12.23;4.57;;;;;;;8.31;73.30;99909.69;5036086;28;20476;-77
2021/12/08 11:05:25;;;;;;;20.70;4.33;;;;;;;8.38;73.67;99927.78;5018391;28;20132;-77
2021/12/08 11:08:25;;;;;;;12.70;4.22;;;;;;;8.31;72.18;99917.72;5034771;28;20415;-79
2021/12/08 11:11:07;;;;;;;7.20;3.65;;;;;;;8.51;73.80;99933.81;5020430;28;20037;-77
2021/12/08 11:13:46;;;;;;;11.88;4.65;;;;;;;8.36;71.86;99927.06;5054034;28;20029;-77
2021/12/08 11:16:15;;;;;;;12.15;5.10;;;;;;;8.39;71.82;99939.34;5053927;28;20060;-78
2021/12/08 11:18:44;;;;;;;7.10;5.15;;;;;;;8.42;72.72;99917.66;5043069;28;20025;-76
2021/12/08 11:21:24;;;;;;;11.15;5.03;;;;;;;8.53;73.63;99926.50;5039420;28;20045;-77
2021/12/08 11:23:52;;;;;;;8.43;5.47;;;;;;;8.54;73.23;99922.00;5046558;28;20131;-80
2021/12/08 11:26:23;;;;;;;14.52;4.10;;;;;;;8.68;73.37;99929.75;5053932;28;20444;-78
2021/12/08 11:29:12;;;;;;;13.88;5.22;;;;;;;8.65;72.41;99927.31;5054096;28;20052;-79
2021/12/08 11:31:41;;;;;;;8.20;3.05;;;;;;;8.61;71.76;99933.91;5053929;28;20032;-81
2021/12/08 11:34:34;;;;;;;5.88;2.85;;;;;;;8.64;72.42;99922.94;5053718;28;20108;-82
2021/12/08 11:37:07;;;;;;;8.35;3.72;;;;;;;8.71;72.49;99930.31;5051893;28;20113;-80
2021/12/08 11:39:38;;;;;;;5.70;3.78;;;;;;;8.79;71.47;99920.75;5036387;28;20083;-79
2021/12/08 11:42:06;;;;;;;12.90;3.50;;;;;;;8.79;70.54;99937.72;5035992;28;20422;-81
2021/12/08 11:44:38;;;;;;;5.38;2.67;;;;;;;8.65;69.94;99930.81;5054476;28;20393;-80
2021/12/08 11:47:06;;;;;;;9.15;3.55;;;;;;;8.54;69.79;99935.38;5054346;28;20454;-80
2021/12/08 11:49:34;;;;;;;11.00;3.40;;;;;;;8.44;70.33;99908.50;5053884;28;20025;-80
2021/12/08 11:52:12;;;;;;;10.30;2.50;;;;;;;8.56;70.45;99936.97;5053882;28;20478;-77
2021/12/08 11:54:46;;;;;;;6.60;3.35;;;;;;;8.38;70.33;99943.84;5053701;28;20078;-77
2021/12/08 11:57:21;;;;;;;16.85;5.00;;;;;;;8.38;71.88;99957.25;5053514;28;20082;-79
2021/12/08 11:59:58;;;;;;;17.10;5.20;;;;;;;8.33;71.16;99939.88;5053558;28;20032;-81
2021/12/08 12:02:28;;;;;;;11.85;4.53;;;;;;;8.38;71.75;99949.22;5054049;28;20025;-80
2021/12/08 12:04:54;;;;;;;16.35;4.07;;;;;;;8.35;71.50;99960.19;5054605;28;20049;-78
2021/12/08 12:07:20;;;;;;;4.05;2.88;;;;;;;8.45;71.68;99949.56;5052903;28;20032;-79
2021/12/08 12:09:47;;;;;;;10.95;2.90;;;;;;;8.39;71.14;99948.25;5053735;28;20036;-78
2021/12/08 12:12:13;;;;;;;11.80;4.43;;;;;;;8.47;70.67;99947.63;5035758;28;20036;-78
2021/12/08 12:14:39;;;;;;;14.95;6.75;;;;;;;8.53;71.72;99955.97;5053787;28;20156;-77
2021/12/08 12:17:05;;;;;;;7.00;4.28;;;;;;;8.48;71.57;99960.88;5053885;28;20029;-77
2021/12/08 12:19:37;;;;;;;18.70;5.35;;;;;;;8.57;72.20;99970.84;5034085;28;20033;-77
2021/12/08 12:22:23;;;;;;;;;;;;;;;8.48;70.99;99981.47;5033243;28;20026;-76
2021/12/08 12:25:12;;;;;;;8.38;4.50;;;;;;;8.53;72.58;99985.44;5035014;28;20128;-76
2021/12/08 12:28:04;;;;;;;11.65;4.40;;;;;;;8.53;72.27;99987.31;5037184;28;20088;-77
2021/12/08 12:30:47;;;;;;;11.98;5.22;;;;;;;8.54;72.89;99991.66;5044362;28;20041;-78
2021/12/08 12:33:22;;;;;;;9.75;4.43;;;;;;;8.51;71.34;99990.09;5034091;28;20029;-77
2021/12/08 12:36:04;;;;;;;7.25;4.25;;;;;;;8.29;70.82;100002.72;5041173;28;20078;-79
2021/12/08 12:38:39;;;;;;;8.85;4.40;;;;;;;8.39;71.70;100007.19;5040632;28;20538;-77
2021/12/08 12:41:21;;;;;;;9.32;5.22;;;;;;;8.33;71.62;99999.66;5035623;28;20033;-78
2021/12/08 12:43:49;;;;;;;14.65;6.53;;;;;;;8.36;72.16;100010.13;5035646;28;20051;-77
2021/12/08 12:46:16;;;;;;;10.40;6.25;;;;;;;8.31;71.61;100012.34;5036307;28;20521;-78
2021/12/08 12:48:48;;;;;;;14.68;5.63;;;;;;;8.24;71.91;100011.09;5035860;28;20025;-78